Terminal Aerodrome Forecast
Issued by NWS Duluth, MN

Home | Current Version | Previous Version | Text Only | Print | Product List | Glossary On
Versions: 1 2 3 4 5 6 7 8 9 10 11 12 13 14 15 16 17 18 19
000
FTUS43 KDLH 020542
TAFINL
TAF
KINL 020542Z 0206/0306 00000KT 6SM HZ BR SKC
     FM020900 00000KT 5SM HZ BR SCT030 BKN080
      TEMPO 0209/0213 1 1/2SM HZ BR
     FM021300 16010KT P6SM FEW040 SCT080
     FM030100 14006KT 6SM HZ BR SKC=

USA.gov is the U.S. government's official web portal to all federal, state and local government web resources and services.